sensor_id;sensor_type;location;lat;lon;timestamp;P1;durP1;ratioP1;P2;durP2;ratioP2
29854;SDS011;16733;48.738;9.106;2022-07-30T00:00:09;3.67;;;1.60;;
29854;SDS011;16733;48.738;9.106;2022-07-30T00:02:35;2.15;;;1.40;;
29854;SDS011;16733;48.738;9.106;2022-07-30T00:05:01;4.05;;;1.52;;
29854;SDS011;16733;48.738;9.106;2022-07-30T00:07:27;2.63;;;1.50;;
29854;SDS011;16733;48.738;9.106;2022-07-30T00:09:53;2.60;;;1.83;;
29854;SDS011;16733;48.738;9.106;2022-07-30T00:12:18;2.55;;;1.52;;
29854;SDS011;16733;48.738;9.106;2022-07-30T00:14:44;2.42;;;1.38;;
29854;SDS011;16733;48.738;9.106;2022-07-30T00:23:53;3.80;;;1.88;;
29854;SDS011;16733;48.738;9.106;2022-07-30T00:26:19;2.10;;;1.45;;
29854;SDS011;16733;48.738;9.106;2022-07-30T00:28:44;3.13;;;1.80;;
29854;SDS011;16733;48.738;9.106;2022-07-30T00:31:10;3.55;;;1.98;;
29854;SDS011;16733;48.738;9.106;2022-07-30T00:40:20;3.58;;;1.98;;
29854;SDS011;16733;48.738;9.106;2022-07-30T00:42:46;1.92;;;1.55;;
29854;SDS011;16733;48.738;9.106;2022-07-30T00:45:13;2.63;;;1.70;;
29854;SDS011;16733;48.738;9.106;2022-07-30T00:51:02;8.13;;;1.85;;
29854;SDS011;16733;48.738;9.106;2022-07-30T00:53:28;4.05;;;1.92;;
29854;SDS011;16733;48.738;9.106;2022-07-30T00:59:15;3.50;;;1.80;;
29854;SDS011;16733;48.738;9.106;2022-07-30T01:05:04;4.95;;;2.00;;
29854;SDS011;16733;48.738;9.106;2022-07-30T01:10:52;6.03;;;2.42;;
29854;SDS011;16733;48.738;9.106;2022-07-30T01:13:17;2.58;;;1.85;;
29854;SDS011;16733;48.738;9.106;2022-07-30T01:15:43;4.60;;;1.92;;
29854;SDS011;16733;48.738;9.106;2022-07-30T01:18:09;1.90;;;1.63;;
29854;SDS011;16733;48.738;9.106;2022-07-30T01:23:59;4.40;;;1.90;;
29854;SDS011;16733;48.738;9.106;2022-07-30T01:30:02;3.28;;;1.85;;
29854;SDS011;16733;48.738;9.106;2022-07-30T01:32:29;3.08;;;1.80;;
29854;SDS011;16733;48.738;9.106;2022-07-30T01:34:57;3.20;;;1.77;;
29854;SDS011;16733;48.738;9.106;2022-07-30T01:37:23;3.60;;;1.90;;
29854;SDS011;16733;48.738;9.106;2022-07-30T01:43:12;2.50;;;1.83;;
29854;SDS011;16733;48.738;9.106;2022-07-30T01:49:02;2.53;;;1.95;;
29854;SDS011;16733;48.738;9.106;2022-07-30T01:51:28;2.67;;;1.80;;
29854;SDS011;16733;48.738;9.106;2022-07-30T01:57:17;2.30;;;2.00;;
29854;SDS011;16733;48.738;9.106;2022-07-30T02:09:54;2.85;;;1.85;;
29854;SDS011;16733;48.738;9.106;2022-07-30T02:12:25;2.90;;;1.92;;
29854;SDS011;16733;48.738;9.106;2022-07-30T02:14:55;1.80;;;1.70;;
29854;SDS011;16733;48.738;9.106;2022-07-30T02:17:40;2.85;;;2.00;;
29854;SDS011;16733;48.738;9.106;2022-07-30T02:20:09;2.53;;;1.83;;
29854;SDS011;16733;48.738;9.106;2022-07-30T02:22:37;4.15;;;1.95;;
29854;SDS011;16733;48.738;9.106;2022-07-30T02:28:29;1.88;;;1.60;;
29854;SDS011;16733;48.738;9.106;2022-07-30T02:30:58;2.72;;;2.10;;
29854;SDS011;16733;48.738;9.106;2022-07-30T02:36:47;3.00;;;2.10;;
29854;SDS011;16733;48.738;9.106;2022-07-30T02:39:15;2.70;;;1.80;;
29854;SDS011;16733;48.738;9.106;2022-07-30T02:41:41;5.03;;;2.28;;
29854;SDS011;16733;48.738;9.106;2022-07-30T02:44:08;2.67;;;1.83;;
29854;SDS011;16733;48.738;9.106;2022-07-30T02:46:35;2.05;;;1.63;;
29854;SDS011;16733;48.738;9.106;2022-07-30T02:49:04;2.70;;;1.80;;
29854;SDS011;16733;48.738;9.106;2022-07-30T02:51:30;3.90;;;2.10;;
29854;SDS011;16733;48.738;9.106;2022-07-30T02:53:58;6.47;;;2.28;;
29854;SDS011;16733;48.738;9.106;2022-07-30T03:03:09;5.30;;;2.50;;
29854;SDS011;16733;48.738;9.106;2022-07-30T03:05:37;4.97;;;2.25;;
29854;SDS011;16733;48.738;9.106;2022-07-30T03:08:05;3.42;;;2.17;;
29854;SDS011;16733;48.738;9.106;2022-07-30T03:10:32;3.00;;;2.00;;
29854;SDS011;16733;48.738;9.106;2022-07-30T03:16:22;6.82;;;2.17;;
29854;SDS011;16733;48.738;9.106;2022-07-30T03:18:50;3.30;;;2.20;;
29854;SDS011;16733;48.738;9.106;2022-07-30T03:24:40;2.72;;;2.10;;
29854;SDS011;16733;48.738;9.106;2022-07-30T03:27:08;4.63;;;2.65;;
29854;SDS011;16733;48.738;9.106;2022-07-30T03:29:34;3.22;;;2.08;;
29854;SDS011;16733;48.738;9.106;2022-07-30T03:32:02;5.30;;;2.33;;
29854;SDS011;16733;48.738;9.106;2022-07-30T03:34:30;3.67;;;2.22;;
29854;SDS011;16733;48.738;9.106;2022-07-30T03:36:58;4.72;;;2.33;;
29854;SDS011;16733;48.738;9.106;2022-07-30T03:39:25;6.68;;;2.40;;
29854;SDS011;16733;48.738;9.106;2022-07-30T03:41:51;3.63;;;2.38;;
29854;SDS011;16733;48.738;9.106;2022-07-30T03:44:18;3.13;;;2.15;;
29854;SDS011;16733;48.738;9.106;2022-07-30T03:46:45;4.95;;;2.58;;
29854;SDS011;16733;48.738;9.106;2022-07-30T03:49:14;5.75;;;2.60;;
29854;SDS011;16733;48.738;9.106;2022-07-30T03:51:41;4.88;;;2.25;;
29854;SDS011;16733;48.738;9.106;2022-07-30T03:54:07;8.48;;;2.70;;
29854;SDS011;16733;48.738;9.106;2022-07-30T03:56:35;4.45;;;2.30;;
29854;SDS011;16733;48.738;9.106;2022-07-30T04:02:23;4.35;;;2.53;;
29854;SDS011;16733;48.738;9.106;2022-07-30T04:04:49;6.60;;;2.58;;
29854;SDS011;16733;48.738;9.106;2022-07-30T04:10:37;3.55;;;2.25;;
29854;SDS011;16733;48.738;9.106;2022-07-30T04:13:02;3.25;;;2.22;;
29854;SDS011;16733;48.738;9.106;2022-07-30T04:18:23;7.07;;;2.28;;
29854;SDS011;16733;48.738;9.106;2022-07-30T04:20:50;3.80;;;2.28;;
29854;SDS011;16733;48.738;9.106;2022-07-30T04:23:18;5.22;;;2.50;;
29854;SDS011;16733;48.738;9.106;2022-07-30T04:25:44;4.15;;;2.67;;
29854;SDS011;16733;48.738;9.106;2022-07-30T04:28:10;5.85;;;2.80;;
29854;SDS011;16733;48.738;9.106;2022-07-30T04:30:37;4.30;;;2.20;;
29854;SDS011;16733;48.738;9.106;2022-07-30T04:33:04;6.88;;;2.55;;
29854;SDS011;16733;48.738;9.106;2022-07-30T04:35:30;4.32;;;2.15;;
29854;SDS011;16733;48.738;9.106;2022-07-30T04:37:57;3.25;;;2.40;;
29854;SDS011;16733;48.738;9.106;2022-07-30T04:43:49;4.95;;;2.20;;
29854;SDS011;16733;48.738;9.106;2022-07-30T04:46:18;3.35;;;2.17;;
29854;SDS011;16733;48.738;9.106;2022-07-30T04:48:44;2.60;;;2.20;;
29854;SDS011;16733;48.738;9.106;2022-07-30T04:51:47;3.85;;;2.13;;
29854;SDS011;16733;48.738;9.106;2022-07-30T04:54:13;4.45;;;2.50;;
29854;SDS011;16733;48.738;9.106;2022-07-30T04:56:40;5.13;;;2.65;;
29854;SDS011;16733;48.738;9.106;2022-07-30T04:59:08;6.70;;;2.75;;
29854;SDS011;16733;48.738;9.106;2022-07-30T05:01:34;5.03;;;2.38;;
29854;SDS011;16733;48.738;9.106;2022-07-30T05:07:24;8.52;;;2.85;;
29854;SDS011;16733;48.738;9.106;2022-07-30T05:13:13;4.97;;;2.45;;
29854;SDS011;16733;48.738;9.106;2022-07-30T05:15:40;4.97;;;2.67;;
29854;SDS011;16733;48.738;9.106;2022-07-30T05:21:28;7.28;;;2.70;;
29854;SDS011;16733;48.738;9.106;2022-07-30T05:23:53;4.07;;;2.42;;
29854;SDS011;16733;48.738;9.106;2022-07-30T05:33:03;6.03;;;2.53;;
29854;SDS011;16733;48.738;9.106;2022-07-30T05:42:13;4.18;;;3.05;;
29854;SDS011;16733;48.738;9.106;2022-07-30T05:44:39;2.58;;;2.08;;
29854;SDS011;16733;48.738;9.106;2022-07-30T05:50:26;4.03;;;2.72;;
29854;SDS011;16733;48.738;9.106;2022-07-30T05:52:52;3.42;;;2.20;;
29854;SDS011;16733;48.738;9.106;2022-07-30T05:55:17;3.05;;;1.95;;
29854;SDS011;16733;48.738;9.106;2022-07-30T05:57:43;6.75;;;2.42;;
29854;SDS011;16733;48.738;9.106;2022-07-30T06:03:30;6.80;;;2.42;;
29854;SDS011;16733;48.738;9.106;2022-07-30T06:05:56;6.03;;;2.45;;
29854;SDS011;16733;48.738;9.106;2022-07-30T06:08:22;6.50;;;2.65;;
29854;SDS011;16733;48.738;9.106;2022-07-30T06:10:47;3.88;;;2.35;;
29854;SDS011;16733;48.738;9.106;2022-07-30T06:13:13;3.78;;;2.30;;
29854;SDS011;16733;48.738;9.106;2022-07-30T06:15:38;3.97;;;2.42;;
29854;SDS011;16733;48.738;9.106;2022-07-30T06:21:26;3.80;;;2.65;;
29854;SDS011;16733;48.738;9.106;2022-07-30T06:23:52;4.78;;;2.70;;
29854;SDS011;16733;48.738;9.106;2022-07-30T06:29:39;9.40;;;2.83;;
29854;SDS011;16733;48.738;9.106;2022-07-30T06:32:05;5.72;;;2.72;;
29854;SDS011;16733;48.738;9.106;2022-07-30T06:34:30;8.73;;;2.85;;
29854;SDS011;16733;48.738;9.106;2022-07-30T06:36:56;6.45;;;2.58;;
29854;SDS011;16733;48.738;9.106;2022-07-30T06:39:22;8.27;;;3.17;;
29854;SDS011;16733;48.738;9.106;2022-07-30T06:45:10;3.95;;;2.47;;
29854;SDS011;16733;48.738;9.106;2022-07-30T06:47:35;3.30;;;2.33;;
29854;SDS011;16733;48.738;9.106;2022-07-30T06:53:23;4.95;;;3.03;;
29854;SDS011;16733;48.738;9.106;2022-07-30T06:55:49;3.20;;;2.47;;
29854;SDS011;16733;48.738;9.106;2022-07-30T07:01:37;4.82;;;2.58;;
29854;SDS011;16733;48.738;9.106;2022-07-30T07:04:02;5.85;;;2.88;;
29854;SDS011;16733;48.738;9.106;2022-07-30T07:09:57;3.53;;;2.10;;
29854;SDS011;16733;48.738;9.106;2022-07-30T07:12:22;5.90;;;2.53;;
29854;SDS011;16733;48.738;9.106;2022-07-30T07:18:10;6.18;;;2.60;;
29854;SDS011;16733;48.738;9.106;2022-07-30T07:20:36;7.05;;;2.95;;
29854;SDS011;16733;48.738;9.106;2022-07-30T07:23:02;5.10;;;2.22;;
29854;SDS011;16733;48.738;9.106;2022-07-30T07:25:28;3.40;;;2.42;;
29854;SDS011;16733;48.738;9.106;2022-07-30T07:34:37;5.10;;;2.55;;
29854;SDS011;16733;48.738;9.106;2022-07-30T07:37:03;4.40;;;2.10;;
29854;SDS011;16733;48.738;9.106;2022-07-30T07:39:29;8.55;;;2.38;;
29854;SDS011;16733;48.738;9.106;2022-07-30T07:41:54;6.93;;;2.58;;
29854;SDS011;16733;48.738;9.106;2022-07-30T07:47:43;6.65;;;2.40;;
29854;SDS011;16733;48.738;9.106;2022-07-30T07:53:32;2.72;;;1.77;;
29854;SDS011;16733;48.738;9.106;2022-07-30T07:55:57;3.60;;;1.73;;
29854;SDS011;16733;48.738;9.106;2022-07-30T08:01:45;4.40;;;2.20;;
29854;SDS011;16733;48.738;9.106;2022-07-30T08:07:33;2.43;;;2.10;;
29854;SDS011;16733;48.738;9.106;2022-07-30T08:13:21;3.65;;;1.70;;
29854;SDS011;16733;48.738;9.106;2022-07-30T08:15:50;2.63;;;1.80;;
29854;SDS011;16733;48.738;9.106;2022-07-30T08:18:16;2.10;;;1.83;;
29854;SDS011;16733;48.738;9.106;2022-07-30T08:20:42;2.40;;;1.90;;
29854;SDS011;16733;48.738;9.106;2022-07-30T08:23:08;4.72;;;3.35;;
29854;SDS011;16733;48.738;9.106;2022-07-30T08:28:56;4.23;;;1.80;;
29854;SDS011;16733;48.738;9.106;2022-07-30T08:31:21;2.47;;;2.05;;
29854;SDS011;16733;48.738;9.106;2022-07-30T08:37:09;2.05;;;1.73;;
29854;SDS011;16733;48.738;9.106;2022-07-30T08:39:35;2.40;;;1.60;;
29854;SDS011;16733;48.738;9.106;2022-07-30T08:42:01;5.28;;;1.60;;
29854;SDS011;16733;48.738;9.106;2022-07-30T08:44:28;1.20;;;1.10;;
29854;SDS011;16733;48.738;9.106;2022-07-30T08:46:55;5.03;;;1.40;;
29854;SDS011;16733;48.738;9.106;2022-07-30T08:49:22;2.42;;;1.73;;
29854;SDS011;16733;48.738;9.106;2022-07-30T08:51:51;4.25;;;1.40;;
29854;SDS011;16733;48.738;9.106;2022-07-30T08:57:39;4.40;;;1.77;;
29854;SDS011;16733;48.738;9.106;2022-07-30T09:06:49;5.95;;;1.60;;
29854;SDS011;16733;48.738;9.106;2022-07-30T09:09:15;3.45;;;1.73;;
29854;SDS011;16733;48.738;9.106;2022-07-30T09:20:52;1.67;;;1.23;;
29854;SDS011;16733;48.738;9.106;2022-07-30T09:23:18;1.50;;;1.30;;
29854;SDS011;16733;48.738;9.106;2022-07-30T09:25:45;3.78;;;1.25;;
29854;SDS011;16733;48.738;9.106;2022-07-30T09:28:12;5.22;;;1.65;;
29854;SDS011;16733;48.738;9.106;2022-07-30T09:30:59;2.95;;;0.90;;
29854;SDS011;16733;48.738;9.106;2022-07-30T09:33:31;2.55;;;1.40;;
29854;SDS011;16733;48.738;9.106;2022-07-30T09:35:57;1.63;;;1.25;;
29854;SDS011;16733;48.738;9.106;2022-07-30T09:41:16;1.90;;;1.08;;
29854;SDS011;16733;48.738;9.106;2022-07-30T09:44:00;3.33;;;1.17;;
29854;SDS011;16733;48.738;9.106;2022-07-30T09:56:34;3.15;;;1.25;;
29854;SDS011;16733;48.738;9.106;2022-07-30T09:59:00;2.38;;;1.48;;
29854;SDS011;16733;48.738;9.106;2022-07-30T10:04:48;3.07;;;1.23;;
29854;SDS011;16733;48.738;9.106;2022-07-30T10:07:17;2.15;;;1.10;;
29854;SDS011;16733;48.738;9.106;2022-07-30T10:09:44;3.67;;;1.08;;
29854;SDS011;16733;48.738;9.106;2022-07-30T10:12:13;3.42;;;1.10;;
29854;SDS011;16733;48.738;9.106;2022-07-30T10:14:41;0.88;;;0.80;;
29854;SDS011;16733;48.738;9.106;2022-07-30T10:17:09;3.75;;;1.40;;
29854;SDS011;16733;48.738;9.106;2022-07-30T10:19:36;2.13;;;1.25;;
29854;SDS011;16733;48.738;9.106;2022-07-30T10:22:02;1.75;;;1.08;;
29854;SDS011;16733;48.738;9.106;2022-07-30T10:24:29;5.03;;;1.15;;
29854;SDS011;16733;48.738;9.106;2022-07-30T10:26:56;1.75;;;0.93;;
29854;SDS011;16733;48.738;9.106;2022-07-30T10:29:21;1.17;;;1.00;;
29854;SDS011;16733;48.738;9.106;2022-07-30T10:31:48;0.98;;;0.73;;
29854;SDS011;16733;48.738;9.106;2022-07-30T10:34:15;5.03;;;1.10;;
29854;SDS011;16733;48.738;9.106;2022-07-30T10:40:06;2.13;;;0.90;;
29854;SDS011;16733;48.738;9.106;2022-07-30T10:45:50;1.67;;;1.00;;
29854;SDS011;16733;48.738;9.106;2022-07-30T10:48:32;1.58;;;1.05;;
29854;SDS011;16733;48.738;9.106;2022-07-30T10:50:59;1.60;;;1.20;;
29854;SDS011;16733;48.738;9.106;2022-07-30T10:57:01;5.07;;;1.23;;
29854;SDS011;16733;48.738;9.106;2022-07-30T11:08:41;2.92;;;1.00;;
29854;SDS011;16733;48.738;9.106;2022-07-30T11:13:47;3.75;;;1.13;;
29854;SDS011;16733;48.738;9.106;2022-07-30T11:16:15;2.60;;;1.00;;
29854;SDS011;16733;48.738;9.106;2022-07-30T11:21:28;2.78;;;1.10;;
29854;SDS011;16733;48.738;9.106;2022-07-30T11:23:54;1.33;;;0.90;;
29854;SDS011;16733;48.738;9.106;2022-07-30T11:29:03;5.70;;;1.63;;
29854;SDS011;16733;48.738;9.106;2022-07-30T11:31:34;1.63;;;1.08;;
29854;SDS011;16733;48.738;9.106;2022-07-30T11:40:06;2.00;;;0.98;;
29854;SDS011;16733;48.738;9.106;2022-07-30T11:42:34;6.82;;;1.20;;
29854;SDS011;16733;48.738;9.106;2022-07-30T11:47:46;3.17;;;0.98;;
29854;SDS011;16733;48.738;9.106;2022-07-30T11:50:19;1.45;;;1.20;;
29854;SDS011;16733;48.738;9.106;2022-07-30T11:55:33;2.65;;;1.10;;
29854;SDS011;16733;48.738;9.106;2022-07-30T11:57:59;5.22;;;1.40;;
29854;SDS011;16733;48.738;9.106;2022-07-30T12:00:34;1.38;;;0.93;;
29854;SDS011;16733;48.738;9.106;2022-07-30T12:03:12;2.97;;;1.08;;
29854;SDS011;16733;48.738;9.106;2022-07-30T12:05:39;3.03;;;1.42;;
29854;SDS011;16733;48.738;9.106;2022-07-30T12:08:06;1.92;;;0.85;;
29854;SDS011;16733;48.738;9.106;2022-07-30T12:13:55;3.03;;;0.90;;
29854;SDS011;16733;48.738;9.106;2022-07-30T12:16:23;3.83;;;0.70;;
29854;SDS011;16733;48.738;9.106;2022-07-30T12:18:50;1.55;;;1.27;;
29854;SDS011;16733;48.738;9.106;2022-07-30T12:21:15;3.03;;;0.88;;
29854;SDS011;16733;48.738;9.106;2022-07-30T12:24:04;3.53;;;0.90;;
29854;SDS011;16733;48.738;9.106;2022-07-30T12:26:33;0.98;;;0.70;;
29854;SDS011;16733;48.738;9.106;2022-07-30T12:29:01;2.15;;;0.80;;
29854;SDS011;16733;48.738;9.106;2022-07-30T12:31:29;1.92;;;0.95;;
29854;SDS011;16733;48.738;9.106;2022-07-30T12:33:55;1.65;;;1.10;;
29854;SDS011;16733;48.738;9.106;2022-07-30T12:39:43;1.50;;;0.90;;
29854;SDS011;16733;48.738;9.106;2022-07-30T12:42:16;2.03;;;0.95;;
29854;SDS011;16733;48.738;9.106;2022-07-30T12:44:45;0.98;;;0.77;;
29854;SDS011;16733;48.738;9.106;2022-07-30T12:47:20;2.47;;;0.80;;
29854;SDS011;16733;48.738;9.106;2022-07-30T12:49:47;2.20;;;0.85;;
29854;SDS011;16733;48.738;9.106;2022-07-30T12:57:27;3.53;;;1.10;;
29854;SDS011;16733;48.738;9.106;2022-07-30T13:00:13;1.67;;;0.90;;
29854;SDS011;16733;48.738;9.106;2022-07-30T13:02:39;6.25;;;1.67;;
29854;SDS011;16733;48.738;9.106;2022-07-30T13:05:04;1.83;;;0.90;;
29854;SDS011;16733;48.738;9.106;2022-07-30T13:07:30;1.17;;;0.90;;
29854;SDS011;16733;48.738;9.106;2022-07-30T13:10:06;1.60;;;0.70;;
29854;SDS011;16733;48.738;9.106;2022-07-30T13:12:33;1.75;;;1.35;;
29854;SDS011;16733;48.738;9.106;2022-07-30T13:14:59;7.15;;;1.25;;
29854;SDS011;16733;48.738;9.106;2022-07-30T13:18:02;1.95;;;0.52;;
29854;SDS011;16733;48.738;9.106;2022-07-30T13:20:27;1.60;;;0.70;;
29854;SDS011;16733;48.738;9.106;2022-07-30T13:22:53;3.13;;;0.93;;
29854;SDS011;16733;48.738;9.106;2022-07-30T13:25:18;0.85;;;0.70;;
29854;SDS011;16733;48.738;9.106;2022-07-30T13:31:06;1.48;;;0.88;;
29854;SDS011;16733;48.738;9.106;2022-07-30T13:33:33;0.80;;;0.63;;
29854;SDS011;16733;48.738;9.106;2022-07-30T13:39:21;0.98;;;0.77;;
29854;SDS011;16733;48.738;9.106;2022-07-30T13:41:47;1.20;;;0.77;;
29854;SDS011;16733;48.738;9.106;2022-07-30T13:44:13;1.23;;;0.82;;
29854;SDS011;16733;48.738;9.106;2022-07-30T13:46:38;0.60;;;0.60;;
29854;SDS011;16733;48.738;9.106;2022-07-30T13:49:04;1.00;;;0.57;;
29854;SDS011;16733;48.738;9.106;2022-07-30T13:51:30;1.52;;;0.63;;
29854;SDS011;16733;48.738;9.106;2022-07-30T13:53:55;3.22;;;0.70;;
29854;SDS011;16733;48.738;9.106;2022-07-30T13:56:21;1.05;;;0.70;;
29854;SDS011;16733;48.738;9.106;2022-07-30T14:02:08;1.77;;;0.80;;
29854;SDS011;16733;48.738;9.106;2022-07-30T14:04:34;2.03;;;0.90;;
29854;SDS011;16733;48.738;9.106;2022-07-30T14:07:00;1.27;;;1.00;;
29854;SDS011;16733;48.738;9.106;2022-07-30T14:13:13;0.70;;;0.70;;
29854;SDS011;16733;48.738;9.106;2022-07-30T14:15:38;1.45;;;0.85;;
29854;SDS011;16733;48.738;9.106;2022-07-30T14:21:26;5.30;;;0.80;;
29854;SDS011;16733;48.738;9.106;2022-07-30T14:27:14;3.55;;;0.70;;
29854;SDS011;16733;48.738;9.106;2022-07-30T14:29:42;4.50;;;0.85;;
29854;SDS011;16733;48.738;9.106;2022-07-30T14:35:30;0.68;;;0.60;;
29854;SDS011;16733;48.738;9.106;2022-07-30T14:37:55;3.83;;;0.88;;
29854;SDS011;16733;48.738;9.106;2022-07-30T14:40:21;1.25;;;0.70;;
29854;SDS011;16733;48.738;9.106;2022-07-30T14:46:09;3.28;;;0.73;;
29854;SDS011;16733;48.738;9.106;2022-07-30T14:48:34;1.05;;;0.80;;
29854;SDS011;16733;48.738;9.106;2022-07-30T14:54:22;1.65;;;0.75;;
29854;SDS011;16733;48.738;9.106;2022-07-30T14:56:48;0.52;;;0.52;;
29854;SDS011;16733;48.738;9.106;2022-07-30T15:09:02;1.30;;;0.60;;
29854;SDS011;16733;48.738;9.106;2022-07-30T15:11:28;1.08;;;0.68;;
29854;SDS011;16733;48.738;9.106;2022-07-30T15:16:56;3.58;;;0.70;;
29854;SDS011;16733;48.738;9.106;2022-07-30T15:19:22;1.25;;;0.65;;
29854;SDS011;16733;48.738;9.106;2022-07-30T15:21:48;0.68;;;0.60;;
29854;SDS011;16733;48.738;9.106;2022-07-30T15:27:36;0.82;;;0.63;;
29854;SDS011;16733;48.738;9.106;2022-07-30T15:30:02;2.15;;;0.80;;
29854;SDS011;16733;48.738;9.106;2022-07-30T15:32:28;1.52;;;0.68;;
29854;SDS011;16733;48.738;9.106;2022-07-30T15:38:16;3.33;;;0.65;;
29854;SDS011;16733;48.738;9.106;2022-07-30T15:40:41;1.80;;;0.63;;
29854;SDS011;16733;48.738;9.106;2022-07-30T15:43:07;1.17;;;0.70;;
29854;SDS011;16733;48.738;9.106;2022-07-30T15:45:33;3.38;;;0.77;;
29854;SDS011;16733;48.738;9.106;2022-07-30T15:47:59;1.30;;;0.90;;
29854;SDS011;16733;48.738;9.106;2022-07-30T15:50:24;1.48;;;0.75;;
29854;SDS011;16733;48.738;9.106;2022-07-30T15:52:50;1.50;;;0.88;;
29854;SDS011;16733;48.738;9.106;2022-07-30T15:55:16;1.23;;;0.60;;
29854;SDS011;16733;48.738;9.106;2022-07-30T16:01:03;1.08;;;0.60;;
29854;SDS011;16733;48.738;9.106;2022-07-30T16:03:32;2.72;;;0.88;;
29854;SDS011;16733;48.738;9.106;2022-07-30T16:09:20;6.45;;;3.25;;
29854;SDS011;16733;48.738;9.106;2022-07-30T16:11:45;3.83;;;2.13;;
29854;SDS011;16733;48.738;9.106;2022-07-30T16:17:35;1.10;;;0.75;;
29854;SDS011;16733;48.738;9.106;2022-07-30T16:20:01;1.35;;;0.70;;
29854;SDS011;16733;48.738;9.106;2022-07-30T16:22:28;1.65;;;1.00;;
29854;SDS011;16733;48.738;9.106;2022-07-30T16:24:53;1.05;;;0.73;;
29854;SDS011;16733;48.738;9.106;2022-07-30T16:27:19;4.60;;;2.75;;
29854;SDS011;16733;48.738;9.106;2022-07-30T16:29:44;0.68;;;0.60;;
29854;SDS011;16733;48.738;9.106;2022-07-30T16:32:10;3.60;;;1.05;;
29854;SDS011;16733;48.738;9.106;2022-07-30T16:34:35;2.53;;;1.33;;
29854;SDS011;16733;48.738;9.106;2022-07-30T16:37:01;0.60;;;0.60;;
29854;SDS011;16733;48.738;9.106;2022-07-30T16:39:27;0.88;;;0.52;;
29854;SDS011;16733;48.738;9.106;2022-07-30T16:41:53;3.28;;;0.80;;
29854;SDS011;16733;48.738;9.106;2022-07-30T16:44:18;0.98;;;0.70;;
29854;SDS011;16733;48.738;9.106;2022-07-30T16:46:44;0.90;;;0.68;;
29854;SDS011;16733;48.738;9.106;2022-07-30T16:49:10;1.02;;;0.90;;
29854;SDS011;16733;48.738;9.106;2022-07-30T16:51:35;0.65;;;0.60;;
29854;SDS011;16733;48.738;9.106;2022-07-30T16:54:01;1.85;;;1.05;;
29854;SDS011;16733;48.738;9.106;2022-07-30T16:59:49;1.30;;;0.73;;
29854;SDS011;16733;48.738;9.106;2022-07-30T17:05:37;0.80;;;0.57;;
29854;SDS011;16733;48.738;9.106;2022-07-30T17:08:03;0.45;;;0.40;;
29854;SDS011;16733;48.738;9.106;2022-07-30T17:13:51;0.82;;;0.63;;
29854;SDS011;16733;48.738;9.106;2022-07-30T17:16:17;0.60;;;0.60;;
29854;SDS011;16733;48.738;9.106;2022-07-30T17:22:06;1.02;;;0.50;;
29854;SDS011;16733;48.738;9.106;2022-07-30T17:24:32;0.85;;;0.60;;
29854;SDS011;16733;48.738;9.106;2022-07-30T17:26:58;1.08;;;0.60;;
29854;SDS011;16733;48.738;9.106;2022-07-30T17:29:23;1.15;;;0.50;;
29854;SDS011;16733;48.738;9.106;2022-07-30T17:35:11;5.35;;;0.65;;
29854;SDS011;16733;48.738;9.106;2022-07-30T17:40:59;2.60;;;0.68;;
29854;SDS011;16733;48.738;9.106;2022-07-30T17:43:25;3.38;;;0.80;;
29854;SDS011;16733;48.738;9.106;2022-07-30T17:49:19;2.50;;;1.60;;
29854;SDS011;16733;48.738;9.106;2022-07-30T17:51:45;1.92;;;1.40;;
29854;SDS011;16733;48.738;9.106;2022-07-30T17:57:32;13.02;;;8.57;;
29854;SDS011;16733;48.738;9.106;2022-07-30T17:59:58;1.08;;;0.50;;
29854;SDS011;16733;48.738;9.106;2022-07-30T18:02:23;1.00;;;0.65;;
29854;SDS011;16733;48.738;9.106;2022-07-30T18:04:49;1.02;;;0.70;;
29854;SDS011;16733;48.738;9.106;2022-07-30T18:07:15;1.05;;;0.55;;
29854;SDS011;16733;48.738;9.106;2022-07-30T18:09:40;2.40;;;0.70;;
29854;SDS011;16733;48.738;9.106;2022-07-30T18:12:06;1.52;;;0.45;;
29854;SDS011;16733;48.738;9.106;2022-07-30T18:14:32;0.93;;;0.40;;
29854;SDS011;16733;48.738;9.106;2022-07-30T18:16:57;1.20;;;0.60;;
29854;SDS011;16733;48.738;9.106;2022-07-30T18:22:46;2.30;;;0.80;;
29854;SDS011;16733;48.738;9.106;2022-07-30T18:25:11;0.55;;;0.50;;
29854;SDS011;16733;48.738;9.106;2022-07-30T18:27:37;0.77;;;0.60;;
29854;SDS011;16733;48.738;9.106;2022-07-30T18:33:28;2.10;;;0.80;;
29854;SDS011;16733;48.738;9.106;2022-07-30T18:39:16;1.48;;;0.80;;
29854;SDS011;16733;48.738;9.106;2022-07-30T18:41:42;0.98;;;0.75;;
29854;SDS011;16733;48.738;9.106;2022-07-30T18:44:07;1.65;;;1.00;;
29854;SDS011;16733;48.738;9.106;2022-07-30T18:49:55;0.70;;;0.70;;
29854;SDS011;16733;48.738;9.106;2022-07-30T18:52:21;1.27;;;0.60;;
29854;SDS011;16733;48.738;9.106;2022-07-30T18:58:09;1.27;;;0.90;;
29854;SDS011;16733;48.738;9.106;2022-07-30T19:00:35;1.20;;;0.88;;
29854;SDS011;16733;48.738;9.106;2022-07-30T19:03:01;3.85;;;0.80;;
29854;SDS011;16733;48.738;9.106;2022-07-30T19:05:27;1.65;;;0.80;;
29854;SDS011;16733;48.738;9.106;2022-07-30T19:07:53;5.05;;;1.00;;
29854;SDS011;16733;48.738;9.106;2022-07-30T19:10:19;1.30;;;0.80;;
29854;SDS011;16733;48.738;9.106;2022-07-30T19:12:44;3.22;;;0.65;;
29854;SDS011;16733;48.738;9.106;2022-07-30T19:18:32;2.03;;;0.70;;
29854;SDS011;16733;48.738;9.106;2022-07-30T19:20:58;2.67;;;0.85;;
29854;SDS011;16733;48.738;9.106;2022-07-30T19:23:24;1.58;;;0.82;;
29854;SDS011;16733;48.738;9.106;2022-07-30T19:25:49;1.45;;;0.65;;
29854;SDS011;16733;48.738;9.106;2022-07-30T19:28:15;3.58;;;0.70;;
29854;SDS011;16733;48.738;9.106;2022-07-30T19:30:41;1.00;;;0.80;;
29854;SDS011;16733;48.738;9.106;2022-07-30T19:36:29;0.90;;;0.80;;
29854;SDS011;16733;48.738;9.106;2022-07-30T19:38:55;1.35;;;0.90;;
29854;SDS011;16733;48.738;9.106;2022-07-30T19:41:24;1.77;;;1.20;;
29854;SDS011;16733;48.738;9.106;2022-07-30T19:43:49;1.63;;;0.80;;
29854;SDS011;16733;48.738;9.106;2022-07-30T19:46:15;1.75;;;0.73;;
29854;SDS011;16733;48.738;9.106;2022-07-30T19:48:41;4.43;;;1.02;;
29854;SDS011;16733;48.738;9.106;2022-07-30T19:54:30;2.40;;;1.25;;
29854;SDS011;16733;48.738;9.106;2022-07-30T19:56:56;5.38;;;1.60;;
29854;SDS011;16733;48.738;9.106;2022-07-30T19:59:21;2.97;;;1.77;;
29854;SDS011;16733;48.738;9.106;2022-07-30T20:05:09;4.80;;;1.40;;
29854;SDS011;16733;48.738;9.106;2022-07-30T20:10:57;4.72;;;1.70;;
29854;SDS011;16733;48.738;9.106;2022-07-30T20:13:25;2.75;;;1.58;;
29854;SDS011;16733;48.738;9.106;2022-07-30T20:19:14;4.30;;;1.40;;
29854;SDS011;16733;48.738;9.106;2022-07-30T20:21:40;3.88;;;1.88;;
29854;SDS011;16733;48.738;9.106;2022-07-30T20:24:06;5.47;;;1.90;;
29854;SDS011;16733;48.738;9.106;2022-07-30T20:26:31;4.07;;;1.63;;
29854;SDS011;16733;48.738;9.106;2022-07-30T20:32:19;5.78;;;1.80;;
29854;SDS011;16733;48.738;9.106;2022-07-30T20:34:46;4.30;;;1.65;;
29854;SDS011;16733;48.738;9.106;2022-07-30T20:37:12;4.03;;;1.83;;
29854;SDS011;16733;48.738;9.106;2022-07-30T20:39:37;3.10;;;1.85;;
29854;SDS011;16733;48.738;9.106;2022-07-30T20:42:03;4.28;;;1.48;;
29854;SDS011;16733;48.738;9.106;2022-07-30T20:44:33;6.18;;;1.50;;
29854;SDS011;16733;48.738;9.106;2022-07-30T20:46:59;2.80;;;1.30;;
29854;SDS011;16733;48.738;9.106;2022-07-30T20:49:25;2.38;;;1.27;;
29854;SDS011;16733;48.738;9.106;2022-07-30T20:51:50;1.73;;;1.38;;
29854;SDS011;16733;48.738;9.106;2022-07-30T20:54:16;9.48;;;2.03;;
29854;SDS011;16733;48.738;9.106;2022-07-30T20:56:42;2.08;;;1.20;;
29854;SDS011;16733;48.738;9.106;2022-07-30T20:59:08;1.48;;;0.90;;
29854;SDS011;16733;48.738;9.106;2022-07-30T21:01:33;1.90;;;1.13;;
29854;SDS011;16733;48.738;9.106;2022-07-30T21:07:22;2.30;;;1.20;;
29854;SDS011;16733;48.738;9.106;2022-07-30T21:09:50;2.88;;;1.60;;
29854;SDS011;16733;48.738;9.106;2022-07-30T21:12:16;2.13;;;1.30;;
29854;SDS011;16733;48.738;9.106;2022-07-30T21:14:41;2.63;;;1.63;;